Auburn Municipal Airport

KAUN · 加利福尼亚州, 美国

罗盘
风向 的 风向 的 风向 到 风向 290° Auburn Municipal Airport 7/25
风: 7 kt, 3 beaufort

6 kt

3 kt
改变
0 ft 1.000 2.000 3.000 4.000 5.000
没有云
METAR KAUN 151755Z AUTO 29007KT 250V330 10SM CLR 23/07 A3000 RMK A01

METAR Auburn Municipal Airport - KAUN/AUN

Auburn Municipal Airport是,美国中的中型机场。 该机场位于纬度38,95483和经度-121,08172。 该机场有一条跑道: 7/25. 本场的ICAO机场代码为KAUN。 该机场的本地机场标识(FAA LID)为AUN。 该机场的IATA代码为AUN。 机场在Oakland FIR中。

该航空气象观测是针对Auburn Municipal Airport在2024年6月15日 10:55, 当地时间进行的。

机场观察

风向为290°,速度为7 kt。 风向在250°和330°之间变化。

可见度为10 mi。

有没有云。 没有观察到天花板。

温度和风寒是23 °C。 露点为7 °C,相对湿度为36%。 海平面上的气压为30,00 inHg (QNH)。

白天

今天,太阳从05:38升起,在20:31降落。 这适用于Auburn Municipal Airport,世界夏令时可能有所不同。 当地时间与世界标准时间之间的时差为-7 小时。 夏令时目前正在进行中。

公司介绍

在这个机场,你可以找到飞行学校。 本场上唯一已知的公司是Mach 5 Aviation。

体会

到Vliegles.nl去找飞行课程,跳伞和其他飞行体验。 浏览页面,了解Auburn Municipal Airport附近所有可用的活动。 你也可以使用搜索功能来寻找你所在地附近的特定飞行课程、跳伞或其他飞行体验。

跑道

Id 标题 侧风 逆风 侧风 %
7/25 084°-264° 3 kt 6 kt 44 %

逆风成分最大的方向会被突出显示,并用于横风计算。 这并不一定意味着这个方向在使用。

乌云

- CLR 没有云

温度 & 天气

温度 23 °C
露点 7 °C
相对湿度 36%
Kp-index 0 (0-9)

评论

A01

白天

日出
05:38
中午
13:05
日落
20:31 (9:17)

小工具

你想在你的网站上有一个关于Auburn Municipal Airport的当前航空天气(METAR)的小部件吗?

显示HTML代码
报告变更